sensor_id;sensor_type;location;lat;lon;timestamp;pressure;altitude;pressure_sealevel;temperature;humidity
75409;BME280;63979;55.644;37.734;2023-03-11T00:02:01;99770.53;;;-3.78;54.06
75409;BME280;63979;55.644;37.734;2023-03-11T00:07:05;99723.06;;;-4.04;54.53
75409;BME280;63979;55.644;37.734;2023-03-11T00:12:07;99780.09;;;-3.77;54.61
75409;BME280;63979;55.644;37.734;2023-03-11T00:17:08;99762.69;;;-3.75;55.39
75409;BME280;63979;55.644;37.734;2023-03-11T00:22:09;99781.72;;;-3.67;56.20
75409;BME280;63979;55.644;37.734;2023-03-11T00:27:10;99756.78;;;-3.91;56.85
75409;BME280;63979;55.644;37.734;2023-03-11T00:32:12;99768.84;;;-3.81;56.86
75409;BME280;63979;55.644;37.734;2023-03-11T00:37:12;99764.53;;;-3.86;56.44
75409;BME280;63979;55.644;37.734;2023-03-11T00:42:13;99742.06;;;-3.96;56.55
75409;BME280;63979;55.644;37.734;2023-03-11T00:47:15;99772.44;;;-3.94;55.98
75409;BME280;63979;55.644;37.734;2023-03-11T00:52:16;99760.38;;;-4.01;56.24
75409;BME280;63979;55.644;37.734;2023-03-11T00:57:17;99777.00;;;-4.13;56.62
75409;BME280;63979;55.644;37.734;2023-03-11T01:02:18;99758.84;;;-4.22;56.69
75409;BME280;63979;55.644;37.734;2023-03-11T01:07:20;99766.78;;;-4.34;56.90
75409;BME280;63979;55.644;37.734;2023-03-11T01:12:21;99767.63;;;-4.33;56.58
75409;BME280;63979;55.644;37.734;2023-03-11T01:17:22;99735.84;;;-4.69;57.15
75409;BME280;63979;55.644;37.734;2023-03-11T01:22:23;99684.06;;;-5.01;58.30
75409;BME280;63979;55.644;37.734;2023-03-11T01:27:24;99762.56;;;-4.46;59.11
75409;BME280;63979;55.644;37.734;2023-03-11T01:32:25;99761.63;;;-4.38;59.10
75409;BME280;63979;55.644;37.734;2023-03-11T01:37:26;99767.69;;;-4.38;58.90
75409;BME280;63979;55.644;37.734;2023-03-11T01:42:27;99715.16;;;-4.83;59.71
75409;BME280;63979;55.644;37.734;2023-03-11T01:47:32;99775.59;;;-4.47;59.22
75409;BME280;63979;55.644;37.734;2023-03-11T01:52:34;99709.06;;;-4.86;59.58
75409;BME280;63979;55.644;37.734;2023-03-11T01:57:37;99761.81;;;-4.61;59.66
75409;BME280;63979;55.644;37.734;2023-03-11T02:02:49;99703.94;;;-4.94;60.44
75409;BME280;63979;55.644;37.734;2023-03-11T02:07:52;99769.69;;;-4.71;60.79
75409;BME280;63979;55.644;37.734;2023-03-11T02:12:55;99763.66;;;-4.76;60.61
75409;BME280;63979;55.644;37.734;2023-03-11T02:17:58;99695.53;;;-5.28;60.87
75409;BME280;63979;55.644;37.734;2023-03-11T02:23:02;99773.25;;;-4.78;60.64
75409;BME280;63979;55.644;37.734;2023-03-11T02:28:06;99765.53;;;-4.93;61.03
75409;BME280;63979;55.644;37.734;2023-03-11T02:33:09;99760.28;;;-4.88;61.81
75409;BME280;63979;55.644;37.734;2023-03-11T02:38:11;99758.44;;;-4.73;60.91
75409;BME280;63979;55.644;37.734;2023-03-11T02:43:15;99758.41;;;-4.68;61.16
75409;BME280;63979;55.644;37.734;2023-03-11T02:48:17;99754.94;;;-4.70;61.52
75409;BME280;63979;55.644;37.734;2023-03-11T02:53:19;99770.63;;;-4.78;62.10
75409;BME280;63979;55.644;37.734;2023-03-11T02:58:20;99689.44;;;-5.25;62.46
75409;BME280;63979;55.644;37.734;2023-03-11T03:03:21;99740.25;;;-4.77;63.37
75409;BME280;63979;55.644;37.734;2023-03-11T03:08:23;99769.66;;;-4.66;63.60
75409;BME280;63979;55.644;37.734;2023-03-11T03:13:25;99686.78;;;-5.21;65.08
75409;BME280;63979;55.644;37.734;2023-03-11T03:18:27;99710.97;;;-5.05;65.89
75409;BME280;63979;55.644;37.734;2023-03-11T03:23:28;99770.69;;;-4.90;66.93
75409;BME280;63979;55.644;37.734;2023-03-11T03:28:29;99703.28;;;-5.23;67.62
75409;BME280;63979;55.644;37.734;2023-03-11T03:33:31;99761.13;;;-4.88;68.75
75409;BME280;63979;55.644;37.734;2023-03-11T03:38:32;99754.25;;;-4.93;68.73
75409;BME280;63979;55.644;37.734;2023-03-11T03:43:33;99758.53;;;-4.82;69.06
75409;BME280;63979;55.644;37.734;2023-03-11T03:48:34;99758.63;;;-4.98;69.68
75409;BME280;63979;55.644;37.734;2023-03-11T03:53:35;99763.78;;;-4.94;70.26
75409;BME280;63979;55.644;37.734;2023-03-11T03:58:37;99730.16;;;-5.17;70.51
75409;BME280;63979;55.644;37.734;2023-03-11T04:03:38;99748.22;;;-4.97;69.89
75409;BME280;63979;55.644;37.734;2023-03-11T04:08:40;99674.03;;;-5.53;70.25
75409;BME280;63979;55.644;37.734;2023-03-11T04:13:41;99731.75;;;-4.99;70.18
75409;BME280;63979;55.644;37.734;2023-03-11T04:18:44;99735.13;;;-4.85;69.69
75409;BME280;63979;55.644;37.734;2023-03-11T04:23:45;99719.56;;;-4.95;69.50
75409;BME280;63979;55.644;37.734;2023-03-11T04:28:46;99739.47;;;-4.85;69.48
75409;BME280;63979;55.644;37.734;2023-03-11T04:33:47;99705.66;;;-4.91;69.54
75409;BME280;63979;55.644;37.734;2023-03-11T04:38:48;99629.56;;;-5.18;69.40
75409;BME280;63979;55.644;37.734;2023-03-11T04:43:50;99703.81;;;-4.76;69.47
75409;BME280;63979;55.644;37.734;2023-03-11T04:48:51;99632.19;;;-5.19;69.20
75409;BME280;63979;55.644;37.734;2023-03-11T04:53:52;99698.53;;;-4.71;69.17
75409;BME280;63979;55.644;37.734;2023-03-11T04:58:54;99702.91;;;-4.72;68.62
75409;BME280;63979;55.644;37.734;2023-03-11T05:03:55;99699.50;;;-4.80;68.78
75409;BME280;63979;55.644;37.734;2023-03-11T05:08:56;99705.41;;;-4.64;68.46
75409;BME280;63979;55.644;37.734;2023-03-11T05:13:58;99691.28;;;-4.37;68.35
75409;BME280;63979;55.644;37.734;2023-03-11T05:18:59;99696.50;;;-4.40;67.79
75409;BME280;63979;55.644;37.734;2023-03-11T05:24:00;99698.09;;;-4.27;67.73
75409;BME280;63979;55.644;37.734;2023-03-11T05:29:02;99696.31;;;-4.22;68.09
75409;BME280;63979;55.644;37.734;2023-03-11T05:34:03;99685.34;;;-4.53;68.65
75409;BME280;63979;55.644;37.734;2023-03-11T05:39:04;99695.69;;;-4.45;68.35
75409;BME280;63979;55.644;37.734;2023-03-11T05:44:05;99626.50;;;-4.71;68.48
75409;BME280;63979;55.644;37.734;2023-03-11T05:49:06;99636.81;;;-4.60;67.93
75409;BME280;63979;55.644;37.734;2023-03-11T05:54:07;99676.56;;;-4.41;68.18
75409;BME280;63979;55.644;37.734;2023-03-11T05:59:15;99693.50;;;-4.03;68.48
75409;BME280;63979;55.644;37.734;2023-03-11T06:04:17;99681.72;;;-4.36;68.73
75409;BME280;63979;55.644;37.734;2023-03-11T06:09:18;99679.28;;;-4.55;69.03
75409;BME280;63979;55.644;37.734;2023-03-11T06:14:19;99693.94;;;-4.43;68.37
75409;BME280;63979;55.644;37.734;2023-03-11T06:19:20;99659.38;;;-4.60;68.17
75409;BME280;63979;55.644;37.734;2023-03-11T06:24:21;99683.63;;;-4.55;67.99
75409;BME280;63979;55.644;37.734;2023-03-11T06:29:22;99682.69;;;-4.45;67.10
75409;BME280;63979;55.644;37.734;2023-03-11T06:34:26;99564.47;;;-5.10;67.37
75409;BME280;63979;55.644;37.734;2023-03-11T06:39:27;99669.00;;;-4.67;67.68
75409;BME280;63979;55.644;37.734;2023-03-11T06:44:28;99671.44;;;-4.50;68.39
75409;BME280;63979;55.644;37.734;2023-03-11T06:49:30;99674.91;;;-4.50;67.83
75409;BME280;63979;55.644;37.734;2023-03-11T06:54:31;99673.09;;;-4.43;67.67
75409;BME280;63979;55.644;37.734;2023-03-11T06:59:33;99658.22;;;-4.32;68.37
75409;BME280;63979;55.644;37.734;2023-03-11T07:04:34;99640.53;;;-4.05;66.98
75409;BME280;63979;55.644;37.734;2023-03-11T07:09:35;99649.78;;;-3.83;66.52
75409;BME280;63979;55.644;37.734;2023-03-11T07:14:36;99639.03;;;-3.59;65.97
75409;BME280;63979;55.644;37.734;2023-03-11T07:19:39;99632.72;;;-3.44;65.22
75409;BME280;63979;55.644;37.734;2023-03-11T07:24:44;99649.22;;;-3.42;65.70
75409;BME280;63979;55.644;37.734;2023-03-11T07:29:47;99643.41;;;-3.61;65.84
75409;BME280;63979;55.644;37.734;2023-03-11T07:34:49;99623.22;;;-3.50;65.32
75409;BME280;63979;55.644;37.734;2023-03-11T07:39:50;99616.47;;;-3.63;64.91
75409;BME280;63979;55.644;37.734;2023-03-11T07:44:51;99596.94;;;-3.36;65.17
75409;BME280;63979;55.644;37.734;2023-03-11T07:49:53;99588.78;;;-3.70;67.45
75409;BME280;63979;55.644;37.734;2023-03-11T07:54:56;99591.66;;;-3.90;68.29
75409;BME280;63979;55.644;37.734;2023-03-11T07:59:58;99584.56;;;-3.79;68.52
75409;BME280;63979;55.644;37.734;2023-03-11T08:04:59;99573.38;;;-3.88;68.92
75409;BME280;63979;55.644;37.734;2023-03-11T08:10:01;99551.03;;;-4.04;70.07
75409;BME280;63979;55.644;37.734;2023-03-11T08:15:04;99545.22;;;-3.65;69.83
75409;BME280;63979;55.644;37.734;2023-03-11T08:20:06;99547.69;;;-3.56;70.00
75409;BME280;63979;55.644;37.734;2023-03-11T08:25:09;99542.22;;;-3.39;68.77
75409;BME280;63979;55.644;37.734;2023-03-11T08:30:10;99521.13;;;-3.28;68.25
75409;BME280;63979;55.644;37.734;2023-03-11T08:35:11;99536.81;;;-3.30;67.21
75409;BME280;63979;55.644;37.734;2023-03-11T08:40:12;99474.44;;;-3.42;67.80
75409;BME280;63979;55.644;37.734;2023-03-11T08:45:14;99506.59;;;-2.52;66.77
75409;BME280;63979;55.644;37.734;2023-03-11T08:50:18;99509.06;;;-2.04;64.85
75409;BME280;63979;55.644;37.734;2023-03-11T08:55:19;99501.56;;;-2.20;64.45
75409;BME280;63979;55.644;37.734;2023-03-11T09:00:25;99526.44;;;-2.43;64.90
75409;BME280;63979;55.644;37.734;2023-03-11T09:05:27;99525.72;;;-2.93;67.19
75409;BME280;63979;55.644;37.734;2023-03-11T09:10:28;99505.69;;;-2.93;67.33
75409;BME280;63979;55.644;37.734;2023-03-11T09:15:29;99502.38;;;-3.01;66.47
75409;BME280;63979;55.644;37.734;2023-03-11T09:20:30;99495.47;;;-3.03;66.71
75409;BME280;63979;55.644;37.734;2023-03-11T09:25:31;99479.50;;;-2.90;65.89
75409;BME280;63979;55.644;37.734;2023-03-11T09:30:32;99473.44;;;-2.48;66.28
75409;BME280;63979;55.644;37.734;2023-03-11T09:35:33;99484.50;;;-2.77;66.24
75409;BME280;63979;55.644;37.734;2023-03-11T09:40:58;99482.56;;;-3.11;67.38
75409;BME280;63979;55.644;37.734;2023-03-11T09:46:37;99461.69;;;-3.11;66.99
75409;BME280;63979;55.644;37.734;2023-03-11T09:51:59;99471.22;;;-3.10;67.52
75409;BME280;63979;55.644;37.734;2023-03-11T09:57:02;99413.81;;;-3.56;67.82
75409;BME280;63979;55.644;37.734;2023-03-11T10:02:04;99443.50;;;-3.17;67.40
75409;BME280;63979;55.644;37.734;2023-03-11T10:07:13;99430.19;;;-3.03;66.83
75409;BME280;63979;55.644;37.734;2023-03-11T10:28:19;99384.81;;;-2.96;65.98
75409;BME280;63979;55.644;37.734;2023-03-11T10:33:23;99379.41;;;-2.89;66.24
75409;BME280;63979;55.644;37.734;2023-03-11T10:38:49;99374.84;;;-2.79;66.00
75409;BME280;63979;55.644;37.734;2023-03-11T10:44:08;99372.63;;;-2.97;66.56
75409;BME280;63979;55.644;37.734;2023-03-11T10:49:13;99360.50;;;-3.00;66.74
75409;BME280;63979;55.644;37.734;2023-03-11T10:54:28;99312.94;;;-3.14;67.36
75409;BME280;63979;55.644;37.734;2023-03-11T10:59:40;99352.75;;;-3.03;67.47
75409;BME280;63979;55.644;37.734;2023-03-11T11:10:27;99327.81;;;-2.77;66.91
75409;BME280;63979;55.644;37.734;2023-03-11T11:15:37;99318.66;;;-2.58;65.88
75409;BME280;63979;55.644;37.734;2023-03-11T11:21:13;99281.03;;;-2.51;65.46
75409;BME280;63979;55.644;37.734;2023-03-11T11:26:24;99286.00;;;-2.40;66.01
75409;BME280;63979;55.644;37.734;2023-03-11T11:31:26;99280.88;;;-2.45;66.43
75409;BME280;63979;55.644;37.734;2023-03-11T11:36:34;99279.91;;;-2.39;66.28
75409;BME280;63979;55.644;37.734;2023-03-11T11:41:36;99225.28;;;-2.86;66.12
75409;BME280;63979;55.644;37.734;2023-03-11T11:46:54;99261.81;;;-2.48;66.82
75409;BME280;63979;55.644;37.734;2023-03-11T11:57:14;99259.31;;;-2.53;66.83
75409;BME280;63979;55.644;37.734;2023-03-11T12:18:20;99250.03;;;-2.65;67.81
75409;BME280;63979;55.644;37.734;2023-03-11T12:23:49;99221.72;;;-2.47;67.65
75409;BME280;63979;55.644;37.734;2023-03-11T12:34:03;99220.56;;;-2.36;66.32
75409;BME280;63979;55.644;37.734;2023-03-11T12:39:27;99222.28;;;-2.35;66.86
75409;BME280;63979;55.644;37.734;2023-03-11T12:44:29;99216.94;;;-2.30;67.41
75409;BME280;63979;55.644;37.734;2023-03-11T12:49:39;99157.19;;;-2.76;68.27
75409;BME280;63979;55.644;37.734;2023-03-11T13:05:29;99203.94;;;-2.33;67.46
75409;BME280;63979;55.644;37.734;2023-03-11T13:10:41;99186.28;;;-2.25;67.36
75409;BME280;63979;55.644;37.734;2023-03-11T13:15:43;99138.88;;;-2.44;67.47
75409;BME280;63979;55.644;37.734;2023-03-11T13:20:47;99095.72;;;-2.57;67.65
75409;BME280;63979;55.644;37.734;2023-03-11T13:41:30;99142.00;;;-2.30;68.43
75409;BME280;63979;55.644;37.734;2023-03-11T13:46:38;99110.59;;;-2.28;68.83
75409;BME280;63979;55.644;37.734;2023-03-11T13:51:42;99111.53;;;-2.31;69.40
75409;BME280;63979;55.644;37.734;2023-03-11T13:56:51;99122.91;;;-2.32;69.31
75409;BME280;63979;55.644;37.734;2023-03-11T14:02:10;99118.31;;;-2.24;69.98
75409;BME280;63979;55.644;37.734;2023-03-11T14:07:16;99113.69;;;-2.15;69.93
75409;BME280;63979;55.644;37.734;2023-03-11T14:12:19;99099.09;;;-2.23;70.52
75409;BME280;63979;55.644;37.734;2023-03-11T14:17:20;99112.00;;;-2.16;70.14
75409;BME280;63979;55.644;37.734;2023-03-11T14:22:21;99110.00;;;-2.08;70.14
75409;BME280;63979;55.644;37.734;2023-03-11T14:27:22;99072.84;;;-2.18;70.38
75409;BME280;63979;55.644;37.734;2023-03-11T14:32:33;99080.28;;;-2.04;70.58
75409;BME280;63979;55.644;37.734;2023-03-11T14:37:37;99069.03;;;-2.06;70.35
75409;BME280;63979;55.644;37.734;2023-03-11T14:42:40;99055.56;;;-1.94;70.19
75409;BME280;63979;55.644;37.734;2023-03-11T14:47:51;99045.91;;;-1.92;70.07
75409;BME280;63979;55.644;37.734;2023-03-11T14:58:10;99053.00;;;-1.96;69.77
75409;BME280;63979;55.644;37.734;2023-03-11T15:03:19;99035.41;;;-1.91;69.51
75409;BME280;63979;55.644;37.734;2023-03-11T15:08:28;99033.88;;;-1.98;69.74
75409;BME280;63979;55.644;37.734;2023-03-11T15:13:31;99029.41;;;-1.94;69.60
75409;BME280;63979;55.644;37.734;2023-03-11T15:18:36;99043.41;;;-1.95;70.65
75409;BME280;63979;55.644;37.734;2023-03-11T15:23:38;99018.09;;;-1.95;70.28
75409;BME280;63979;55.644;37.734;2023-03-11T15:28:40;99008.41;;;-1.91;70.41
75409;BME280;63979;55.644;37.734;2023-03-11T15:33:42;98996.47;;;-2.00;70.56
75409;BME280;63979;55.644;37.734;2023-03-11T15:38:43;99006.25;;;-1.78;70.96
75409;BME280;63979;55.644;37.734;2023-03-11T15:43:46;99012.53;;;-1.84;71.11
75409;BME280;63979;55.644;37.734;2023-03-11T15:48:48;98993.91;;;-1.75;70.88
75409;BME280;63979;55.644;37.734;2023-03-11T15:53:49;98971.50;;;-1.82;71.50
75409;BME280;63979;55.644;37.734;2023-03-11T15:58:50;98964.44;;;-1.80;71.00
75409;BME280;63979;55.644;37.734;2023-03-11T16:03:51;98955.47;;;-1.71;72.03
75409;BME280;63979;55.644;37.734;2023-03-11T16:08:52;98961.59;;;-1.72;71.67
75409;BME280;63979;55.644;37.734;2023-03-11T16:13:53;98932.69;;;-1.68;71.47
75409;BME280;63979;55.644;37.734;2023-03-11T16:18:54;98937.69;;;-1.62;71.81
75409;BME280;63979;55.644;37.734;2023-03-11T16:23:55;98930.66;;;-1.60;72.05
75409;BME280;63979;55.644;37.734;2023-03-11T16:28:56;98931.44;;;-1.58;71.93
75409;BME280;63979;55.644;37.734;2023-03-11T16:33:57;98912.19;;;-1.55;71.88
75409;BME280;63979;55.644;37.734;2023-03-11T16:38:58;98912.75;;;-1.47;71.77
75409;BME280;63979;55.644;37.734;2023-03-11T16:43:59;98876.63;;;-1.61;71.79
75409;BME280;63979;55.644;37.734;2023-03-11T16:49:00;98893.47;;;-1.44;71.67
75409;BME280;63979;55.644;37.734;2023-03-11T16:54:02;98871.63;;;-1.43;71.45
75409;BME280;63979;55.644;37.734;2023-03-11T16:59:03;98872.66;;;-1.47;71.85
75409;BME280;63979;55.644;37.734;2023-03-11T17:04:05;98862.88;;;-1.42;71.46
75409;BME280;63979;55.644;37.734;2023-03-11T17:09:06;98851.50;;;-1.41;71.81
75409;BME280;63979;55.644;37.734;2023-03-11T17:14:07;98849.38;;;-1.30;71.49
75409;BME280;63979;55.644;37.734;2023-03-11T17:19:08;98847.78;;;-1.34;71.80
75409;BME280;63979;55.644;37.734;2023-03-11T17:24:10;98763.09;;;-1.57;71.04
75409;BME280;63979;55.644;37.734;2023-03-11T17:29:11;98779.19;;;-1.44;71.43
75409;BME280;63979;55.644;37.734;2023-03-11T17:34:12;98797.47;;;-1.19;71.68
75409;BME280;63979;55.644;37.734;2023-03-11T17:39:14;98791.81;;;-1.08;71.47
75409;BME280;63979;55.644;37.734;2023-03-11T17:44:15;98778.44;;;-1.01;71.41
75409;BME280;63979;55.644;37.734;2023-03-11T17:49:16;98762.09;;;-1.07;71.78
75409;BME280;63979;55.644;37.734;2023-03-11T17:54:17;98740.63;;;-0.93;71.79
75409;BME280;63979;55.644;37.734;2023-03-11T17:59:18;98733.50;;;-0.90;72.01
75409;BME280;63979;55.644;37.734;2023-03-11T18:04:19;98723.94;;;-0.91;71.99
75409;BME280;63979;55.644;37.734;2023-03-11T18:09:20;98737.13;;;-0.72;72.13
75409;BME280;63979;55.644;37.734;2023-03-11T18:14:21;98740.31;;;-0.64;72.46
75409;BME280;63979;55.644;37.734;2023-03-11T18:19:22;98728.13;;;-0.65;72.38
75409;BME280;63979;55.644;37.734;2023-03-11T18:24:23;98713.72;;;-0.55;72.54
75409;BME280;63979;55.644;37.734;2023-03-11T18:29:24;98720.47;;;-0.49;72.99
75409;BME280;63979;55.644;37.734;2023-03-11T18:34:25;98719.81;;;-0.54;73.83
75409;BME280;63979;55.644;37.734;2023-03-11T18:39:26;98642.03;;;-0.95;74.51
75409;BME280;63979;55.644;37.734;2023-03-11T18:44:27;98689.34;;;-0.57;74.78
75409;BME280;63979;55.644;37.734;2023-03-11T18:49:28;98698.06;;;-0.36;74.00
75409;BME280;63979;55.644;37.734;2023-03-11T18:54:29;98664.59;;;-0.50;75.54
75409;BME280;63979;55.644;37.734;2023-03-11T18:59:30;98652.19;;;-0.46;75.84
75409;BME280;63979;55.644;37.734;2023-03-11T19:04:31;98648.22;;;-0.35;75.78
75409;BME280;63979;55.644;37.734;2023-03-11T19:09:33;98633.28;;;-0.33;75.83
75409;BME280;63979;55.644;37.734;2023-03-11T19:14:34;98629.19;;;-0.40;76.05
75409;BME280;63979;55.644;37.734;2023-03-11T19:19:35;98601.81;;;-0.33;76.09
75409;BME280;63979;55.644;37.734;2023-03-11T19:24:36;98604.03;;;-0.23;76.15
75409;BME280;63979;55.644;37.734;2023-03-11T19:29:38;98597.66;;;-0.18;75.68
75409;BME280;63979;55.644;37.734;2023-03-11T19:34:39;98559.25;;;-0.19;76.33
75409;BME280;63979;55.644;37.734;2023-03-11T19:39:40;98546.06;;;-0.17;76.97
75409;BME280;63979;55.644;37.734;2023-03-11T19:44:41;98555.41;;;-0.12;77.43
75409;BME280;63979;55.644;37.734;2023-03-11T19:49:42;98549.47;;;-0.15;77.58
75409;BME280;63979;55.644;37.734;2023-03-11T19:54:43;98484.78;;;-0.34;78.43
75409;BME280;63979;55.644;37.734;2023-03-11T19:59:44;98465.13;;;-0.44;78.63
75409;BME280;63979;55.644;37.734;2023-03-11T20:04:45;98522.41;;;0.03;78.96
75409;BME280;63979;55.644;37.734;2023-03-11T20:09:46;98517.16;;;0.03;79.30
75409;BME280;63979;55.644;37.734;2023-03-11T20:14:48;98511.06;;;0.03;79.61
75409;BME280;63979;55.644;37.734;2023-03-11T20:19:49;98484.44;;;0.10;79.93
75409;BME280;63979;55.644;37.734;2023-03-11T20:24:50;98461.06;;;0.06;79.48
75409;BME280;63979;55.644;37.734;2023-03-11T20:29:51;98463.41;;;0.12;79.58
75409;BME280;63979;55.644;37.734;2023-03-11T20:34:52;98462.16;;;0.19;79.57
75409;BME280;63979;55.644;37.734;2023-03-11T20:39:52;98436.00;;;0.17;80.29
75409;BME280;63979;55.644;37.734;2023-03-11T20:44:53;98421.81;;;0.21;80.47
75409;BME280;63979;55.644;37.734;2023-03-11T20:49:55;98417.03;;;0.29;80.38
75409;BME280;63979;55.644;37.734;2023-03-11T20:54:56;98392.56;;;0.29;81.01
75409;BME280;63979;55.644;37.734;2023-03-11T20:59:57;98391.28;;;0.38;81.45
75409;BME280;63979;55.644;37.734;2023-03-11T21:04:58;98335.47;;;0.17;81.65
75409;BME280;63979;55.644;37.734;2023-03-11T21:10:00;98349.91;;;0.43;81.98
75409;BME280;63979;55.644;37.734;2023-03-11T21:15:02;98343.06;;;0.56;82.11
75409;BME280;63979;55.644;37.734;2023-03-11T21:20:05;98314.19;;;0.56;82.41
75409;BME280;63979;55.644;37.734;2023-03-11T21:25:06;98297.59;;;0.55;82.97
75409;BME280;63979;55.644;37.734;2023-03-11T21:30:08;98287.69;;;0.60;83.26
75409;BME280;63979;55.644;37.734;2023-03-11T21:35:09;98286.06;;;0.75;83.24
75409;BME280;63979;55.644;37.734;2023-03-11T21:40:10;98226.16;;;0.33;83.31
75409;BME280;63979;55.644;37.734;2023-03-11T21:45:12;98237.94;;;0.75;83.64
75409;BME280;63979;55.644;37.734;2023-03-11T21:50:13;98247.59;;;0.90;83.58
75409;BME280;63979;55.644;37.734;2023-03-11T21:55:15;98233.34;;;0.94;84.26
75409;BME280;63979;55.644;37.734;2023-03-11T22:00:16;98164.81;;;0.67;84.04
75409;BME280;63979;55.644;37.734;2023-03-11T22:05:17;98214.22;;;1.08;84.22
75409;BME280;63979;55.644;37.734;2023-03-11T22:10:18;98206.25;;;1.09;83.94
75409;BME280;63979;55.644;37.734;2023-03-11T22:15:19;98196.41;;;1.13;84.85
75409;BME280;63979;55.644;37.734;2023-03-11T22:20:21;98135.09;;;0.82;84.43
75409;BME280;63979;55.644;37.734;2023-03-11T22:25:22;98177.41;;;1.23;84.28
75409;BME280;63979;55.644;37.734;2023-03-11T22:30:23;98173.75;;;1.26;84.24
75409;BME280;63979;55.644;37.734;2023-03-11T22:35:25;98173.56;;;1.29;84.84
75409;BME280;63979;55.644;37.734;2023-03-11T22:40:26;98117.53;;;0.99;84.43
75409;BME280;63979;55.644;37.734;2023-03-11T22:45:27;98150.06;;;1.42;84.59
75409;BME280;63979;55.644;37.734;2023-03-11T22:50:28;98153.44;;;1.44;84.46
75409;BME280;63979;55.644;37.734;2023-03-11T22:55:29;98126.50;;;1.40;84.73
75409;BME280;63979;55.644;37.734;2023-03-11T23:00:30;98069.84;;;1.20;84.62
75409;BME280;63979;55.644;37.734;2023-03-11T23:05:31;98102.38;;;1.48;84.69
75409;BME280;63979;55.644;37.734;2023-03-11T23:10:42;98094.03;;;1.55;84.63
75409;BME280;63979;55.644;37.734;2023-03-11T23:15:44;98098.44;;;1.55;84.83
75409;BME280;63979;55.644;37.734;2023-03-11T23:20:46;98065.66;;;1.61;84.67
75409;BME280;63979;55.644;37.734;2023-03-11T23:25:47;98062.38;;;1.71;84.80
75409;BME280;63979;55.644;37.734;2023-03-11T23:30:48;98006.63;;;1.52;85.35
75409;BME280;63979;55.644;37.734;2023-03-11T23:35:49;98036.56;;;1.78;85.32
75409;BME280;63979;55.644;37.734;2023-03-11T23:40:50;98022.19;;;1.83;85.31
75409;BME280;63979;55.644;37.734;2023-03-11T23:45:51;98017.94;;;1.95;85.70
75409;BME280;63979;55.644;37.734;2023-03-11T23:50:53;98012.50;;;1.98;85.61
75409;BME280;63979;55.644;37.734;2023-03-11T23:55:54;97980.16;;;1.96;85.95
